Latest Weather Observations for Avalon

IDV60801

Issued at 8:42 am EST Saturday 24 August 2019 (issued every 10 minutes, with the page automatically refreshed every 10 minutes)

About weather observations | Map of weather stations | Latest weather observations for VIC | Other Formats
Station Details ID: 087113 Name: AVALON AIRPORT Lat: -38.03 Lon: 144.48 Height: 10.6 m
Data from the previous 72 hours. | See also: Recent months at Avalon
Date/Time
EST
Temp
°C
App
Temp
°C
Dew
Point
°C
Rel
Hum
%
Delta-T
°C
Wind Press
QNH
hPa
Press
MSL
hPa
Rain since
9am
mm
Dir  Spd
km/h
Gust
km/h
Spd
kts
Gust
kts
24/08:30am 9.9 2.4 3.2 63 2.9 NNE 32 43 17 23 1014.7 1014.7 0.0
24/08:00am 9.1 1.9 2.9 65 2.6 N 30 39 16 21 1014.8 1014.8 0.0
24/07:30am 7.7 0.8 2.6 70 2.1 N 28 35 15 19 1015.1 1015.1 0.0
24/07:00am 7.3 0.8 2.8 73 1.9 N 26 33 14 18 1015.1 1015.1 0.0
24/06:30am 6.8 0.3 2.9 76 1.6 N 26 35 14 19 1015.2 1015.2 0.0
24/06:00am 6.2 1.1 3.2 81 1.3 N 19 26 10 14 1015.4 1015.4 0.0
24/05:30am 5.9 1.6 3.1 82 1.2 N 15 17 8 9 1015.6 1015.6 0.0
24/05:00am 6.3 1.2 2.9 79 1.4 N 19 24 10 13 1015.6 1015.6 0.0
24/04:30am 6.7 1.4 2.8 76 1.6 NNE 20 28 11 15 1015.8 1015.8 0.0
24/04:00am 5.9 0.7 3.6 85 1.0 NE 20 22 11 12 1016.0 1016.0 0.0
24/03:30am 5.4 0.6 2.8 83 1.1 ENE 17 22 9 12 1016.2 1016.2 0.0
24/03:00am 5.0 1.3 2.5 84 1.0 E 11 13 6 7 1016.6 1016.6 0.0
24/02:30am 6.1 2.9 2.9 80 1.3 NE 9 13 5 7 1016.7 1016.7 0.0
24/02:00am 8.0 2.8 3.8 75 1.8 NNE 20 24 11 13 1017.0 1017.0 0.0
24/01:30am 5.8 1.1 3.3 84 1.0 NNE 17 20 9 11 1017.5 1017.5 0.0
24/01:00am 6.8 2.3 4.3 84 1.1 NNE 17 20 9 11 1017.8 1017.8 0.0
24/12:30am 5.4 2.3 3.6 88 0.8 NE 9 13 5 7 1018.0 1018.0 0.0
24/12:00am 5.5 4.2 4.0 90 0.6 CALM 0 0 0 0 1018.2 1018.2 0.0
 
Date/Time
EST
Temp
°C
App
Temp
°C
Dew
Point
°C
Rel
Hum
%
Delta-T
°C
Wind Press
QNH
hPa
Press
MSL
hPa
Rain since
9am
mm
Dir  Spd
km/h
Gust
km/h
Spd
kts
Gust
kts
23/11:30pm 4.8 2.8 2.5 85 0.9 NE 2 7 1 4 1018.3 1018.3 0.0
23/11:00pm 6.0 2.2 3.7 85 1.0 NNE 13 15 7 8 1018.4 1018.4 0.0
23/10:30pm 5.3 1.4 3.3 87 0.8 NE 13 15 7 8 1018.8 1018.8 0.0
23/10:00pm 5.0 1.0 2.9 86 0.9 NE 13 15 7 8 1019.2 1019.2 0.0
23/09:30pm 6.4 2.5 3.6 82 1.2 NE 13 17 7 9 1019.6 1019.6 0.0
23/09:00pm 7.8 3.6 4.0 77 1.6 NNE 15 20 8 11 1020.1 1020.1 0.0
23/08:30pm 10.2 5.9 5.2 71 2.3 NNW 17 24 9 13 1020.4 1020.4 0.0
23/08:00pm 11.2 5.6 5.5 68 2.6 NW 24 32 13 17 1020.4 1020.4 0.0
23/07:30pm 10.7 6.5 5.5 70 2.4 NW 17 24 9 13 1020.2 1020.2 0.0
23/07:00pm 9.1 5.1 5.1 76 1.8 NNW 15 19 8 10 1020.0 1020.0 0.0
23/06:30pm 10.2 6.2 5.0 70 2.3 NNW 15 20 8 11 1019.9 1019.9 0.0
23/06:00pm 11.8 7.9 5.2 64 3.0 NW 15 19 8 10 1019.6 1019.6 0.0
23/05:30pm 13.3 10.6 5.7 60 3.6 NNW 9 13 5 7 1019.2 1019.2 0.0
23/05:00pm 14.8 10.6 5.9 55 4.2 NW 17 22 9 12 1019.1 1019.1 0.0
23/04:30pm 15.8 10.8 4.5 47 5.3 NW 20 28 11 15 1019.0 1019.0 0.0
23/04:00pm 16.3 11.4 4.0 44 5.7 NW 19 22 10 12 1019.4 1019.4 0.0
23/03:30pm 16.2 13.1 7.2 55 4.5 NNW 13 20 7 11 1019.6 1019.6 0.0
23/03:00pm 15.6 12.0 6.6 55 4.4 N 15 20 8 11 1019.8 1019.8 0.0
23/02:30pm 15.0 10.5 6.0 55 4.3 N 19 22 10 12 1020.0 1020.0 0.0
23/02:00pm 14.8 10.9 7.1 60 3.8 N 17 24 9 13 1020.5 1020.5 0.0
23/01:30pm 13.8 10.1 6.2 60 3.6 N 15 24 8 13 1021.3 1021.3 0.0
23/01:00pm 13.2 9.2 6.5 64 3.2 N 17 22 9 12 1022.0 1022.0 0.0
23/12:30pm 12.4 8.6 5.8 64 3.1 N 15 22 8 12 1022.7 1022.7 0.0
23/12:00pm 11.4 7.6 5.7 68 2.6 N 15 20 8 11 1023.5 1023.5 0.0
23/11:30am 10.8 6.6 5.6 70 2.4 NW 17 24 9 13 1024.2 1024.2 0.0
23/11:00am 10.5 5.9 6.5 76 1.9 WNW 20 26 11 14 1024.8 1024.8 0.0
23/10:30am 9.4 4.2 5.4 76 1.8 NW 22 32 12 17 1025.0 1025.0 0.0
23/10:00am 9.4 4.4 6.3 81 1.4 WNW 22 30 12 16 1025.5 1025.5 0.0
23/09:30am 9.3 5.7 6.9 85 1.1 NW 15 20 8 11 1025.6 1025.6 0.0
23/09:00am 8.1 4.9 6.7 91 0.6 NW 13 19 7 10 1025.8 1025.8 0.0
23/08:30am 6.0 3.7 5.9 99 0.0 NW 7 13 4 7 1025.8 1025.8 0.0
23/08:00am 3.1 0.3 3.0 99 0.0 NW 7 9 4 5 1025.8 1025.8 0.0
23/07:30am 1.2 -1.8 1.1 99 0.0 NW 6 7 3 4 1025.7 1025.7 0.0
23/07:00am 1.0 -2.9 0.9 99 0.0 NNW 11 13 6 7 1025.4 1025.4 0.0
23/06:30am 1.2 -2.7 1.1 99 0.0 NW 11 11 6 6 1025.4 1025.4 0.0
23/06:00am 1.7 -1.4 1.4 98 0.1 NW 7 7 4 4 1025.4 1025.4 0.0
23/05:30am 2.6 -1.1 2.5 99 0.0 NW 11 13 6 7 1025.3 1025.3 0.0
23/05:00am 2.0 -1.4 1.7 98 0.1 WNW 9 11 5 6 1025.3 1025.3 0.0
23/04:30am 2.8 -0.5 2.7 99 0.0 NW 9 11 5 6 1025.2 1025.2 0.0
23/04:00am 2.3 -1.1 1.7 96 0.2 NW 9 11 5 6 1025.3 1025.3 0.0
23/03:30am 2.3 -1.1 1.6 95 0.3 NW 9 11 5 6 1025.5 1025.5 0.0
23/03:00am 3.3 0.0 2.7 96 0.2 NW 9 11 5 6 1025.6 1025.6 0.0
23/02:30am 3.9 0.4 3.3 96 0.2 NW 11 13 6 7 1025.8 1025.8 0.0
23/02:00am 3.9 0.7 3.2 95 0.3 WNW 9 11 5 6 1026.2 1026.2 0.0
23/01:30am 4.2 1.0 3.2 93 0.4 NW 9 11 5 6 1026.5 1026.5 0.0
23/01:00am 3.9 0.3 3.2 95 0.3 NNW 11 13 6 7 1026.6 1026.6 0.0
23/12:30am 3.8 0.6 3.1 95 0.3 NW 9 11 5 6 1026.9 1026.9 0.0
23/12:00am 4.1 1.0 3.4 95 0.3 NW 9 11 5 6 1026.7 1026.7 0.0
 
Date/Time
EST
Temp
°C
App
Temp
°C
Dew
Point
°C
Rel
Hum
%
Delta-T
°C
Wind Press
QNH
hPa
Press
MSL
hPa
Rain since
9am
mm
Dir  Spd
km/h
Gust
km/h
Spd
kts
Gust
kts
22/11:30pm 3.8 0.6 2.9 94 0.4 NW 9 11 5 6 1026.7 1026.7 0.0
22/11:00pm 3.6 0.3 2.7 94 0.4 NW 9 9 5 5 1026.9 1026.9 0.0
22/10:30pm 3.9 0.6 2.6 91 0.5 NW 9 11 5 6 1027.0 1027.0 0.0
22/10:00pm 4.8 1.3 3.6 92 0.5 NW 11 15 6 8 1026.9 1026.9 0.0
22/09:30pm 5.3 1.8 3.5 88 0.7 WNW 11 13 6 7 1026.9 1026.9 0.0
22/09:00pm 5.1 2.4 3.8 91 0.5 NW 7 9 4 5 1027.1 1027.1 0.0
22/08:30pm 5.3 2.2 3.6 89 0.7 NW 9 13 5 7 1027.0 1027.0 0.0
22/08:00pm 6.0 2.2 3.7 85 1.0 W 13 13 7 7 1026.5 1026.5 0.0
22/07:30pm 6.7 3.8 4.4 85 1.0 W 9 9 5 5 1026.4 1026.4 0.0
22/07:00pm 6.7 3.7 4.2 84 1.1 WSW 9 11 5 6 1026.3 1026.3 0.0
22/06:30pm 7.6 3.9 4.4 80 1.4 SSW 13 15 7 8 1026.1 1026.1 0.0
22/06:00pm 8.6 4.7 5.2 79 1.5 SSW 15 20 8 11 1025.9 1025.9 0.0
22/05:30pm 9.6 4.6 4.8 72 2.1 SSW 20 26 11 14 1025.6 1025.6 0.0
22/05:00pm 10.4 4.8 5.2 70 2.3 SSW 24 32 13 17 1025.4 1025.4 0.0
22/04:30pm 11.1 4.9 6.0 71 2.4 S 28 33 15 18 1025.0 1025.0 0.0
22/04:00pm 12.0 5.5 6.3 68 2.7 S 30 37 16 20 1024.9 1024.9 0.0
22/03:30pm 12.2 5.7 4.9 61 3.3 S 28 37 15 20 1024.7 1024.7 0.0
22/03:00pm 12.2 6.2 5.1 62 3.3 S 26 37 14 20 1024.5 1024.5 0.0
22/02:30pm 12.5 5.4 5.7 63 3.2 SSW 32 39 17 21 1024.4 1024.4 0.0
22/02:00pm 13.0 6.1 6.4 64 3.1 SSW 32 35 17 19 1024.2 1024.2 0.0
22/01:30pm 13.0 6.0 6.1 63 3.3 SSW 32 41 17 22 1024.3 1024.3 0.0
22/01:00pm 12.1 5.7 7.0 71 2.4 SSW 30 43 16 23 1024.3 1024.3 0.0
22/12:30pm 12.4 5.6 5.3 62 3.3 SW 30 37 16 20 1024.5 1024.5 0.0
22/12:00pm 11.6 4.4 5.7 67 2.7 SW 33 43 18 23 1024.6 1024.6 0.0
22/11:30am 12.3 5.5 5.0 61 3.4 SW 30 39 16 21 1024.5 1024.5 0.0
22/11:00am 11.1 5.1 5.4 68 2.6 SW 26 39 14 21 1024.5 1024.5 0.0
22/10:30am 11.0 5.0 5.3 68 2.6 SW 26 33 14 18 1024.3 1024.3 0.0
22/10:00am 11.4 6.1 5.1 65 2.9 WSW 22 32 12 17 1023.7 1023.7 0.0
22/09:30am 11.0 5.2 4.5 64 2.9 WSW 24 35 13 19 1023.3 1023.3 0.0
22/09:00am 10.4 6.0 4.8 68 2.5 W 17 22 9 12 1022.8 1022.8 0.2
22/08:30am 10.2 4.8 4.6 68 2.5 WSW 22 30 12 16 1022.6 1022.6 0.2
22/08:00am 9.4 5.1 5.2 75 1.9 SW 17 22 9 12 1022.2 1022.2 0.2
22/07:30am 7.7 4.8 6.3 91 0.6 W 11 13 6 7 1021.8 1021.8 0.2
22/07:00am 8.6 5.3 6.2 85 1.1 WSW 13 20 7 11 1021.3 1021.3 0.2
22/06:30am 8.9 4.8 6.2 83 1.2 SW 17 20 9 11 1020.6 1020.6 0.2
22/06:00am 9.6 4.6 6.5 81 1.4 WSW 22 28 12 15 1020.1 1020.1 0.2
22/05:30am 10.0 4.3 6.9 81 1.5 WSW 26 35 14 19 1019.7 1019.7 0.2
22/05:00am 10.3 3.6 7.5 83 1.3 WSW 32 43 17 23 1019.4 1019.4 0.2
22/04:30am 10.3 5.2 7.7 84 1.2 WSW 24 33 13 18 1018.7 1018.7 0.2
22/04:00am 10.4 4.1 7.5 82 1.4 WSW 30 35 16 19 1018.4 1018.4 0.2
22/03:30am 10.8 4.0 7.7 81 1.5 WSW 33 43 18 23 1018.2 1018.2 0.2
22/03:00am 11.0 4.3 8.1 82 1.4 WSW 33 43 18 23 1017.8 1017.8 0.2
22/02:30am 11.4 3.6 8.4 82 1.5 WSW 39 52 21 28 1017.8 1017.8 0.2
22/02:09am 11.2 4.9 9.1 87 1.0 W 32 50 17 27 1017.8 1017.8 0.2
22/02:00am 11.1 4.3 9.2 88 0.9 W 35 50 19 27 1017.7 1017.7 0.2
22/01:30am 11.6 5.3 9.7 88 1.0 WSW 33 46 18 25 1017.9 1017.9 0.2
22/01:00am 11.9 4.5 9.8 87 1.1 WSW 39 50 21 27 1017.6 1017.6 0.2
22/12:30am 11.6 3.3 10.0 90 0.8 WSW 44 59 24 32 1017.1 1017.1 0.2
22/12:28am 11.6 3.0 10.2 91 0.7 WSW 46 59 25 32 1016.9 1016.9 0.2
22/12:27am 11.6 3.0 10.2 91 0.7 WSW 46 63 25 34 1016.9 1016.9 0.2
22/12:18am 11.7 4.3 11.1 96 0.3 W 41 63 22 34 1016.8 1016.8 0.2
22/12:03am 11.7 5.1 11.2 97 0.3 W 37 54 20 29 1016.8 1016.8 0.0
22/12:00am 11.8 4.7 11.0 95 0.4 W 39 54 21 29 1016.8 1016.8 0.0
 
Date/Time
EST
Temp
°C
App
Temp
°C
Dew
Point
°C
Rel
Hum
%
Delta-T
°C
Wind Press
QNH
hPa
Press
MSL
hPa
Rain since
9am
mm
Dir  Spd
km/h
Gust
km/h
Spd
kts
Gust
kts
21/11:59pm 11.9 5.2 11.1 95 0.4 W 37 54 20 29 1016.8 1016.8 0.0
21/11:46pm 12.0 5.2 10.7 92 0.7 W 37 56 20 30 1016.5 1016.5 0.0
21/11:30pm 12.3 4.1 10.4 88 1.0 W 44 59 24 32 1016.3 1016.3 0.0
21/11:00pm 12.2 4.5 10.1 87 1.1 W 41 56 22 30 1016.3 1016.3 0.0
21/10:31pm 12.0 4.3 10.1 88 1.0 W 41 61 22 33 1016.2 1016.2 0.0
21/10:30pm 11.9 4.2 10.0 88 1.0 W 41 57 22 31 1016.2 1016.2 0.0
21/10:10pm 12.1 4.4 10.0 87 1.1 W 41 59 22 32 1016.6 1016.6 0.0
21/10:00pm 11.9 3.8 10.0 88 1.0 W 43 57 23 31 1016.6 1016.6 0.0
21/09:30pm 12.5 4.6 9.3 81 1.6 WNW 41 61 22 33 1016.6 1016.6 0.0
21/09:00pm 12.3 4.7 9.1 81 1.6 W 39 57 21 31 1016.5 1016.5 0.0
21/08:41pm 12.5 5.3 9.3 81 1.6 WNW 37 57 20 31 1016.9 1016.9 0.0
21/08:30pm 12.5 4.9 9.1 80 1.7 WNW 39 52 21 28 1016.9 1016.9 0.0
21/08:00pm 12.4 5.6 9.2 81 1.6 WNW 35 46 19 25 1017.5 1017.5 0.0
21/07:30pm 12.5 5.7 9.1 80 1.7 WNW 35 50 19 27 1017.6 1017.6 0.0
21/07:00pm 12.7 5.5 9.0 78 1.9 WNW 37 50 20 27 1017.6 1017.6 0.0
21/06:30pm 12.4 5.8 8.5 77 1.9 WNW 33 46 18 25 1017.8 1017.8 0.0
21/06:00pm 12.4 7.1 8.3 76 2.0 W 26 35 14 19 1018.0 1018.0 0.0
21/05:30pm 12.7 5.2 8.0 73 2.3 W 37 50 20 27 1017.8 1017.8 0.0
21/05:00pm 13.3 5.3 7.5 68 2.8 W 39 56 21 30 1017.6 1017.6 0.0
21/04:30pm 14.3 6.4 8.0 66 3.1 W 39 56 21 30 1017.9 1017.9 0.0
21/04:25pm 14.5 7.1 8.2 66 3.2 W 37 56 20 30 1018.0 1018.0 0.0
21/04:00pm 14.4 6.6 8.4 67 3.0 W 39 54 21 29 1018.1 1018.1 0.0
21/03:31pm 14.8 7.8 8.5 66 3.2 W 35 54 19 29 1018.3 1018.3 0.0
21/03:30pm 14.6 7.2 8.3 66 3.2 W 37 54 20 29 1018.3 1018.3 0.0
21/03:06pm 15.0 7.1 8.0 63 3.5 W 39 59 21 32 1018.4 1018.4 0.0
21/03:00pm 14.3 5.5 7.4 63 3.4 W 43 56 23 30 1018.1 1018.1 0.0
21/02:47pm 15.5 8.0 7.8 60 3.8 W 37 56 20 30 1018.0 1018.0 0.0
21/02:30pm 15.1 6.3 7.2 59 3.9 W 43 56 23 30 1018.4 1018.4 0.0
21/02:00pm 15.3 7.6 8.5 64 3.4 W 39 59 21 32 1018.2 1018.2 0.0
21/01:57pm 15.3 7.5 8.1 62 3.6 W 39 59 21 32 1018.2 1018.2 0.0
21/01:30pm 15.3 7.8 7.8 61 3.7 W 37 52 20 28 1018.4 1018.4 0.0
21/01:05pm 14.8 6.0 7.1 60 3.8 W 43 61 23 33 1018.8 1018.8 0.0
21/01:00pm 15.1 6.3 7.2 59 3.9 W 43 59 23 32 1018.8 1018.8 0.0
21/12:38pm 15.5 8.7 9.2 66 3.2 W 35 57 19 31 1019.0 1019.0 0.0
21/12:30pm 14.8 7.4 8.5 66 3.2 W 37 48 20 26 1019.0 1019.0 0.0
21/12:11pm 15.0 7.6 8.3 64 3.4 W 37 57 20 31 1019.2 1019.2 0.0
21/12:00pm 15.2 7.6 8.9 66 3.2 W 39 54 21 29 1019.4 1019.4 0.0
21/11:30am 15.0 7.6 9.8 71 2.7 W 39 52 21 28 1019.5 1019.5 0.0
21/11:00am 14.3 6.7 9.1 71 2.6 W 39 54 21 29 1019.6 1019.6 0.0
21/10:38am 14.2 7.4 9.2 72 2.5 W 35 59 19 32 1019.4 1019.4 0.0
21/10:30am 13.7 5.8 9.2 74 2.3 W 41 56 22 30 1019.3 1019.3 0.0
21/10:00am 13.5 7.2 9.7 78 1.9 W 33 46 18 25 1019.2 1019.2 0.0
21/09:30am 12.7 6.6 10.6 87 1.1 W 33 48 18 26 1019.4 1019.4 0.0
21/09:00am 12.3 7.4 11.2 93 0.6 W 28 39 15 21 1019.4 1019.4 0.0

Other formats

Comma delimited format used in spreadsheet applications
http://www.bom.gov.au/fwo/IDV60801/IDV60801.94854.axf

JavaScript Object Notation format (JSON) in row-major order
http://www.bom.gov.au/fwo/IDV60801/IDV60801.94854.json

Data quality

Most of these data are generated automatically and are frequently updated. Quality checks on data are not normally performed. It is possible for incorrect values to appear. Refer to information at About Latest Weather Observations and please check the disclaimer before using these data.